sensor_id;sensor_type;location;lat;lon;timestamp;P1;durP1;ratioP1;P2;durP2;ratioP2
83511;SDS011;73446;0.000;0.000;2024-02-04T00:00:46;0.30;;;0.30;;
83511;SDS011;73446;0.000;0.000;2024-02-04T00:03:30;0.30;;;0.30;;
83511;SDS011;73446;0.000;0.000;2024-02-04T00:06:14;0.40;;;0.40;;
83511;SDS011;73446;0.000;0.000;2024-02-04T00:08:59;0.52;;;0.52;;
83511;SDS011;73446;0.000;0.000;2024-02-04T00:11:43;0.60;;;0.60;;
83511;SDS011;73446;0.000;0.000;2024-02-04T00:14:27;1.30;;;1.30;;
83511;SDS011;73446;0.000;0.000;2024-02-04T00:17:11;0.70;;;0.30;;
83511;SDS011;73446;0.000;0.000;2024-02-04T00:19:55;0.43;;;0.43;;
83511;SDS011;73446;0.000;0.000;2024-02-04T00:22:40;0.47;;;0.47;;
83511;SDS011;73446;0.000;0.000;2024-02-04T00:25:24;0.65;;;0.65;;
83511;SDS011;73446;0.000;0.000;2024-02-04T00:28:08;0.47;;;0.40;;
83511;SDS011;73446;0.000;0.000;2024-02-04T00:30:55;0.35;;;0.35;;
83511;SDS011;73446;0.000;0.000;2024-02-04T00:33:41;0.45;;;0.45;;
83511;SDS011;73446;0.000;0.000;2024-02-04T00:36:25;0.52;;;0.52;;
83511;SDS011;73446;0.000;0.000;2024-02-04T00:39:09;0.65;;;0.65;;
83511;SDS011;73446;0.000;0.000;2024-02-04T00:41:53;0.40;;;0.40;;
83511;SDS011;73446;0.000;0.000;2024-02-04T00:44:38;0.55;;;0.55;;
83511;SDS011;73446;0.000;0.000;2024-02-04T00:47:22;0.47;;;0.47;;
83511;SDS011;73446;0.000;0.000;2024-02-04T00:50:06;0.25;;;0.25;;
83511;SDS011;73446;0.000;0.000;2024-02-04T00:52:51;0.38;;;0.38;;
83511;SDS011;73446;0.000;0.000;2024-02-04T00:55:37;1.27;;;1.27;;
83511;SDS011;73446;0.000;0.000;2024-02-04T00:58:21;1.00;;;1.00;;
83511;SDS011;73446;0.000;0.000;2024-02-04T01:01:05;0.70;;;0.70;;
83511;SDS011;73446;0.000;0.000;2024-02-04T01:03:49;0.40;;;0.40;;
83511;SDS011;73446;0.000;0.000;2024-02-04T01:06:33;0.35;;;0.35;;
83511;SDS011;73446;0.000;0.000;2024-02-04T01:09:17;0.52;;;0.52;;
83511;SDS011;73446;0.000;0.000;2024-02-04T01:12:01;0.00;;;0.00;;
83511;SDS011;73446;0.000;0.000;2024-02-04T01:14:45;0.40;;;0.40;;
83511;SDS011;73446;0.000;0.000;2024-02-04T01:17:29;0.88;;;0.88;;
83511;SDS011;73446;0.000;0.000;2024-02-04T01:20:14;0.43;;;0.43;;
83511;SDS011;73446;0.000;0.000;2024-02-04T01:22:58;1.02;;;1.02;;
83511;SDS011;73446;0.000;0.000;2024-02-04T01:25:43;0.75;;;0.75;;
83511;SDS011;73446;0.000;0.000;2024-02-04T01:28:27;0.93;;;0.93;;
83511;SDS011;73446;0.000;0.000;2024-02-04T01:31:11;0.43;;;0.43;;
83511;SDS011;73446;0.000;0.000;2024-02-04T01:33:55;0.55;;;0.55;;
83511;SDS011;73446;0.000;0.000;2024-02-04T01:36:39;0.30;;;0.30;;
83511;SDS011;73446;0.000;0.000;2024-02-04T01:39:22;0.45;;;0.45;;
83511;SDS011;73446;0.000;0.000;2024-02-04T01:42:06;0.55;;;0.55;;
83511;SDS011;73446;0.000;0.000;2024-02-04T01:44:51;0.30;;;0.30;;
83511;SDS011;73446;0.000;0.000;2024-02-04T01:47:38;0.22;;;0.22;;
83511;SDS011;73446;0.000;0.000;2024-02-04T01:50:22;0.55;;;0.55;;
83511;SDS011;73446;0.000;0.000;2024-02-04T01:53:07;0.55;;;0.55;;
83511;SDS011;73446;0.000;0.000;2024-02-04T01:55:51;0.50;;;0.50;;
83511;SDS011;73446;0.000;0.000;2024-02-04T01:58:35;0.20;;;0.20;;
83511;SDS011;73446;0.000;0.000;2024-02-04T02:01:19;0.52;;;0.52;;
83511;SDS011;73446;0.000;0.000;2024-02-04T02:04:04;0.30;;;0.30;;
83511;SDS011;73446;0.000;0.000;2024-02-04T02:06:49;0.88;;;0.88;;
83511;SDS011;73446;0.000;0.000;2024-02-04T02:09:33;0.32;;;0.32;;
83511;SDS011;73446;0.000;0.000;2024-02-04T02:12:18;0.40;;;0.40;;
83511;SDS011;73446;0.000;0.000;2024-02-04T02:15:16;0.43;;;0.43;;
83511;SDS011;73446;0.000;0.000;2024-02-04T02:18:04;0.38;;;0.38;;
83511;SDS011;73446;0.000;0.000;2024-02-04T02:26:55;0.20;;;0.20;;
83511;SDS011;73446;0.000;0.000;2024-02-04T02:29:42;0.57;;;0.57;;
83511;SDS011;73446;0.000;0.000;2024-02-04T02:32:26;0.80;;;0.80;;
83511;SDS011;73446;0.000;0.000;2024-02-04T02:35:11;1.08;;;1.08;;
83511;SDS011;73446;0.000;0.000;2024-02-04T02:37:59;0.52;;;0.52;;
83511;SDS011;73446;0.000;0.000;2024-02-04T02:41:06;1.10;;;0.30;;
83511;SDS011;73446;0.000;0.000;2024-02-04T02:43:53;0.63;;;0.63;;
83511;SDS011;73446;0.000;0.000;2024-02-04T02:46:38;0.43;;;0.43;;
83511;SDS011;73446;0.000;0.000;2024-02-04T02:49:22;1.35;;;1.35;;
83511;SDS011;73446;0.000;0.000;2024-02-04T02:52:06;0.32;;;0.32;;
83511;SDS011;73446;0.000;0.000;2024-02-04T02:54:50;0.40;;;0.40;;
83511;SDS011;73446;0.000;0.000;2024-02-04T02:57:35;0.38;;;0.38;;
83511;SDS011;73446;0.000;0.000;2024-02-04T03:00:19;0.32;;;0.32;;
83511;SDS011;73446;0.000;0.000;2024-02-04T03:03:03;0.28;;;0.28;;
83511;SDS011;73446;0.000;0.000;2024-02-04T03:05:47;0.30;;;0.30;;
83511;SDS011;73446;0.000;0.000;2024-02-04T03:08:31;0.77;;;0.77;;
83511;SDS011;73446;0.000;0.000;2024-02-04T03:11:15;0.32;;;0.32;;
83511;SDS011;73446;0.000;0.000;2024-02-04T03:13:59;0.00;;;0.00;;
83511;SDS011;73446;0.000;0.000;2024-02-04T03:16:43;0.88;;;0.88;;
83511;SDS011;73446;0.000;0.000;2024-02-04T03:19:29;0.40;;;0.40;;
83511;SDS011;73446;0.000;0.000;2024-02-04T03:22:13;0.22;;;0.22;;
83511;SDS011;73446;0.000;0.000;2024-02-04T03:24:57;0.00;;;0.00;;
83511;SDS011;73446;0.000;0.000;2024-02-04T03:27:40;0.35;;;0.35;;
83511;SDS011;73446;0.000;0.000;2024-02-04T03:30:24;0.40;;;0.40;;
83511;SDS011;73446;0.000;0.000;2024-02-04T03:33:08;0.55;;;0.55;;
83511;SDS011;73446;0.000;0.000;2024-02-04T03:35:52;0.88;;;0.88;;
83511;SDS011;73446;0.000;0.000;2024-02-04T03:38:36;0.52;;;0.52;;
83511;SDS011;73446;0.000;0.000;2024-02-04T03:41:20;0.43;;;0.43;;
83511;SDS011;73446;0.000;0.000;2024-02-04T03:44:04;0.65;;;0.65;;
83511;SDS011;73446;0.000;0.000;2024-02-04T03:46:49;0.40;;;0.40;;
83511;SDS011;73446;0.000;0.000;2024-02-04T03:49:33;0.32;;;0.32;;
83511;SDS011;73446;0.000;0.000;2024-02-04T03:52:17;0.20;;;0.20;;
83511;SDS011;73446;0.000;0.000;2024-02-04T03:55:02;0.68;;;0.68;;
83511;SDS011;73446;0.000;0.000;2024-02-04T03:57:46;0.20;;;0.20;;
83511;SDS011;73446;0.000;0.000;2024-02-04T04:00:30;0.40;;;0.40;;
83511;SDS011;73446;0.000;0.000;2024-02-04T04:03:15;0.75;;;0.75;;
83511;SDS011;73446;0.000;0.000;2024-02-04T04:05:59;0.50;;;0.50;;
83511;SDS011;73446;0.000;0.000;2024-02-04T04:08:43;0.40;;;0.40;;
83511;SDS011;73446;0.000;0.000;2024-02-04T04:11:27;0.28;;;0.28;;
83511;SDS011;73446;0.000;0.000;2024-02-04T04:14:11;0.30;;;0.30;;
83511;SDS011;73446;0.000;0.000;2024-02-04T04:16:55;0.38;;;0.38;;
83511;SDS011;73446;0.000;0.000;2024-02-04T04:19:39;0.38;;;0.38;;
83511;SDS011;73446;0.000;0.000;2024-02-04T04:22:23;0.43;;;0.43;;
83511;SDS011;73446;0.000;0.000;2024-02-04T04:25:07;0.45;;;0.45;;
83511;SDS011;73446;0.000;0.000;2024-02-04T04:27:52;0.45;;;0.45;;
83511;SDS011;73446;0.000;0.000;2024-02-04T04:30:36;0.20;;;0.20;;
83511;SDS011;73446;0.000;0.000;2024-02-04T04:33:20;0.13;;;0.13;;
83511;SDS011;73446;0.000;0.000;2024-02-04T04:36:04;0.00;;;0.00;;
83511;SDS011;73446;0.000;0.000;2024-02-04T04:38:48;0.13;;;0.13;;
83511;SDS011;73446;0.000;0.000;2024-02-04T04:41:34;0.10;;;0.08;;
83511;SDS011;73446;0.000;0.000;2024-02-04T04:44:19;0.13;;;0.05;;
83511;SDS011;73446;0.000;0.000;2024-02-04T04:47:03;0.38;;;0.38;;
83511;SDS011;73446;0.000;0.000;2024-02-04T04:49:48;1.15;;;1.15;;
83511;SDS011;73446;0.000;0.000;2024-02-04T04:52:32;0.00;;;0.00;;
83511;SDS011;73446;0.000;0.000;2024-02-04T04:55:16;0.10;;;0.10;;
83511;SDS011;73446;0.000;0.000;2024-02-04T04:58:01;0.52;;;0.52;;
83511;SDS011;73446;0.000;0.000;2024-02-04T05:00:45;0.32;;;0.32;;
83511;SDS011;73446;0.000;0.000;2024-02-04T05:03:29;0.47;;;0.47;;
83511;SDS011;73446;0.000;0.000;2024-02-04T05:06:13;0.50;;;0.50;;
83511;SDS011;73446;0.000;0.000;2024-02-04T05:08:57;0.20;;;0.20;;
83511;SDS011;73446;0.000;0.000;2024-02-04T05:11:41;0.40;;;0.40;;
83511;SDS011;73446;0.000;0.000;2024-02-04T05:14:25;0.22;;;0.22;;
83511;SDS011;73446;0.000;0.000;2024-02-04T05:17:09;0.85;;;0.85;;
83511;SDS011;73446;0.000;0.000;2024-02-04T05:19:53;0.20;;;0.20;;
83511;SDS011;73446;0.000;0.000;2024-02-04T05:22:38;0.47;;;0.47;;
83511;SDS011;73446;0.000;0.000;2024-02-04T05:25:22;0.35;;;0.35;;
83511;SDS011;73446;0.000;0.000;2024-02-04T05:28:06;0.45;;;0.45;;
83511;SDS011;73446;0.000;0.000;2024-02-04T05:30:50;0.90;;;0.90;;
83511;SDS011;73446;0.000;0.000;2024-02-04T05:33:34;0.38;;;0.38;;
83511;SDS011;73446;0.000;0.000;2024-02-04T05:36:18;0.52;;;0.52;;
83511;SDS011;73446;0.000;0.000;2024-02-04T05:39:08;0.28;;;0.28;;
83511;SDS011;73446;0.000;0.000;2024-02-04T05:41:54;0.32;;;0.32;;
83511;SDS011;73446;0.000;0.000;2024-02-04T05:44:38;0.40;;;0.40;;
83511;SDS011;73446;0.000;0.000;2024-02-04T05:47:22;0.47;;;0.47;;
83511;SDS011;73446;0.000;0.000;2024-02-04T05:50:06;1.15;;;1.15;;
83511;SDS011;73446;0.000;0.000;2024-02-04T05:52:51;0.35;;;0.35;;
83511;SDS011;73446;0.000;0.000;2024-02-04T05:55:35;1.10;;;1.10;;
83511;SDS011;73446;0.000;0.000;2024-02-04T05:58:19;0.55;;;0.55;;
83511;SDS011;73446;0.000;0.000;2024-02-04T06:01:03;0.00;;;0.00;;
83511;SDS011;73446;0.000;0.000;2024-02-04T06:03:47;0.32;;;0.32;;
83511;SDS011;73446;0.000;0.000;2024-02-04T06:06:31;0.20;;;0.20;;
83511;SDS011;73446;0.000;0.000;2024-02-04T06:09:15;0.30;;;0.30;;
83511;SDS011;73446;0.000;0.000;2024-02-04T06:11:59;0.43;;;0.43;;
83511;SDS011;73446;0.000;0.000;2024-02-04T06:14:44;0.28;;;0.28;;
83511;SDS011;73446;0.000;0.000;2024-02-04T06:17:27;0.40;;;0.40;;
83511;SDS011;73446;0.000;0.000;2024-02-04T06:20:11;0.30;;;0.30;;
83511;SDS011;73446;0.000;0.000;2024-02-04T06:22:55;0.65;;;0.65;;
83511;SDS011;73446;0.000;0.000;2024-02-04T06:25:41;0.65;;;0.65;;
83511;SDS011;73446;0.000;0.000;2024-02-04T06:28:25;0.38;;;0.38;;
83511;SDS011;73446;0.000;0.000;2024-02-04T06:31:09;0.52;;;0.52;;
83511;SDS011;73446;0.000;0.000;2024-02-04T06:33:53;0.82;;;0.82;;
83511;SDS011;73446;0.000;0.000;2024-02-04T06:36:37;0.50;;;0.50;;
83511;SDS011;73446;0.000;0.000;2024-02-04T06:39:21;0.30;;;0.30;;
83511;SDS011;73446;0.000;0.000;2024-02-04T06:42:05;0.20;;;0.20;;
83511;SDS011;73446;0.000;0.000;2024-02-04T06:44:49;0.20;;;0.20;;
83511;SDS011;73446;0.000;0.000;2024-02-04T06:47:33;1.15;;;1.15;;
83511;SDS011;73446;0.000;0.000;2024-02-04T06:50:17;0.55;;;0.35;;
83511;SDS011;73446;0.000;0.000;2024-02-04T06:53:02;0.93;;;0.50;;
83511;SDS011;73446;0.000;0.000;2024-02-04T06:55:46;0.57;;;0.57;;
83511;SDS011;73446;0.000;0.000;2024-02-04T06:58:30;5.07;;;0.45;;
83511;SDS011;73446;0.000;0.000;2024-02-04T07:01:14;0.52;;;0.30;;
83511;SDS011;73446;0.000;0.000;2024-02-04T07:03:58;0.40;;;0.40;;
83511;SDS011;73446;0.000;0.000;2024-02-04T07:06:42;2.67;;;0.20;;
83511;SDS011;73446;0.000;0.000;2024-02-04T07:09:27;2.05;;;0.50;;
83511;SDS011;73446;0.000;0.000;2024-02-04T07:12:11;1.05;;;0.68;;
83511;SDS011;73446;0.000;0.000;2024-02-04T07:14:55;1.95;;;0.35;;
83511;SDS011;73446;0.000;0.000;2024-02-04T07:17:39;1.73;;;0.80;;
83511;SDS011;73446;0.000;0.000;2024-02-04T07:20:24;2.42;;;0.32;;
83511;SDS011;73446;0.000;0.000;2024-02-04T07:23:07;0.43;;;0.43;;
83511;SDS011;73446;0.000;0.000;2024-02-04T07:25:53;2.00;;;0.13;;
83511;SDS011;73446;0.000;0.000;2024-02-04T07:28:37;0.82;;;0.17;;
83511;SDS011;73446;0.000;0.000;2024-02-04T07:31:21;0.47;;;0.40;;
83511;SDS011;73446;0.000;0.000;2024-02-04T07:34:06;16.10;;;1.88;;
83511;SDS011;73446;0.000;0.000;2024-02-04T07:36:50;1.63;;;0.20;;
83511;SDS011;73446;0.000;0.000;2024-02-04T07:39:36;1.60;;;0.30;;
83511;SDS011;73446;0.000;0.000;2024-02-04T07:42:20;2.58;;;1.25;;
83511;SDS011;73446;0.000;0.000;2024-02-04T07:45:06;2.03;;;0.35;;
83511;SDS011;73446;0.000;0.000;2024-02-04T07:47:52;7.43;;;1.67;;
83511;SDS011;73446;0.000;0.000;2024-02-04T07:50:36;2.90;;;0.57;;
83511;SDS011;73446;0.000;0.000;2024-02-04T07:53:20;2.05;;;0.45;;
83511;SDS011;73446;0.000;0.000;2024-02-04T07:56:05;0.85;;;0.85;;
83511;SDS011;73446;0.000;0.000;2024-02-04T07:58:56;0.60;;;0.60;;
83511;SDS011;73446;0.000;0.000;2024-02-04T08:01:40;0.65;;;0.65;;
83511;SDS011;73446;0.000;0.000;2024-02-04T08:04:25;1.90;;;0.47;;
83511;SDS011;73446;0.000;0.000;2024-02-04T08:07:08;1.25;;;0.70;;
83511;SDS011;73446;0.000;0.000;2024-02-04T08:09:53;1.95;;;0.38;;
83511;SDS011;73446;0.000;0.000;2024-02-04T08:12:37;2.47;;;0.68;;
83511;SDS011;73446;0.000;0.000;2024-02-04T08:15:22;1.10;;;0.57;;
83511;SDS011;73446;0.000;0.000;2024-02-04T08:18:06;3.92;;;0.35;;
83511;SDS011;73446;0.000;0.000;2024-02-04T08:20:50;2.03;;;0.77;;
83511;SDS011;73446;0.000;0.000;2024-02-04T08:23:35;0.40;;;0.40;;
83511;SDS011;73446;0.000;0.000;2024-02-04T08:26:20;1.50;;;0.47;;
83511;SDS011;73446;0.000;0.000;2024-02-04T08:29:04;3.05;;;1.48;;
83511;SDS011;73446;0.000;0.000;2024-02-04T08:31:48;1.45;;;0.32;;
83511;SDS011;73446;0.000;0.000;2024-02-04T08:34:32;0.65;;;0.15;;
83511;SDS011;73446;0.000;0.000;2024-02-04T08:37:16;0.38;;;0.35;;
83511;SDS011;73446;0.000;0.000;2024-02-04T08:40:01;0.20;;;0.20;;
83511;SDS011;73446;0.000;0.000;2024-02-04T08:42:46;1.35;;;1.10;;
83511;SDS011;73446;0.000;0.000;2024-02-04T08:45:30;2.03;;;0.43;;
83511;SDS011;73446;0.000;0.000;2024-02-04T08:48:14;0.40;;;0.40;;
83511;SDS011;73446;0.000;0.000;2024-02-04T08:50:58;0.43;;;0.03;;
83511;SDS011;73446;0.000;0.000;2024-02-04T08:53:42;0.20;;;0.00;;
83511;SDS011;73446;0.000;0.000;2024-02-04T08:56:26;1.38;;;0.43;;
83511;SDS011;73446;0.000;0.000;2024-02-04T08:59:10;0.20;;;0.20;;
83511;SDS011;73446;0.000;0.000;2024-02-04T09:01:54;0.28;;;0.28;;
83511;SDS011;73446;0.000;0.000;2024-02-04T09:04:38;1.45;;;1.35;;
83511;SDS011;73446;0.000;0.000;2024-02-04T09:07:24;0.35;;;0.35;;
83511;SDS011;73446;0.000;0.000;2024-02-04T09:10:08;1.15;;;0.32;;
83511;SDS011;73446;0.000;0.000;2024-02-04T09:12:52;0.63;;;0.63;;
83511;SDS011;73446;0.000;0.000;2024-02-04T09:15:37;1.02;;;0.47;;
83511;SDS011;73446;0.000;0.000;2024-02-04T09:18:23;0.63;;;0.63;;
83511;SDS011;73446;0.000;0.000;2024-02-04T09:21:07;0.82;;;0.65;;
83511;SDS011;73446;0.000;0.000;2024-02-04T09:23:51;2.50;;;0.30;;
83511;SDS011;73446;0.000;0.000;2024-02-04T09:26:35;1.25;;;0.65;;
83511;SDS011;73446;0.000;0.000;2024-02-04T09:29:20;0.38;;;0.38;;
83511;SDS011;73446;0.000;0.000;2024-02-04T09:32:04;0.30;;;0.28;;
83511;SDS011;73446;0.000;0.000;2024-02-04T09:34:49;0.93;;;0.20;;
83511;SDS011;73446;0.000;0.000;2024-02-04T09:37:33;0.63;;;0.63;;
83511;SDS011;73446;0.000;0.000;2024-02-04T09:40:17;0.73;;;0.73;;
83511;SDS011;73446;0.000;0.000;2024-02-04T09:43:01;0.93;;;0.60;;
83511;SDS011;73446;0.000;0.000;2024-02-04T09:45:46;1.42;;;0.47;;
83511;SDS011;73446;0.000;0.000;2024-02-04T09:48:32;1.40;;;0.40;;
83511;SDS011;73446;0.000;0.000;2024-02-04T09:51:16;0.90;;;0.80;;
83511;SDS011;73446;0.000;0.000;2024-02-04T09:54:03;2.05;;;0.32;;
83511;SDS011;73446;0.000;0.000;2024-02-04T09:56:49;0.82;;;0.32;;
83511;SDS011;73446;0.000;0.000;2024-02-04T09:59:35;5.57;;;0.52;;
83511;SDS011;73446;0.000;0.000;2024-02-04T10:02:20;1.92;;;0.68;;
83511;SDS011;73446;0.000;0.000;2024-02-04T10:05:04;1.50;;;0.22;;
83511;SDS011;73446;0.000;0.000;2024-02-04T10:07:49;2.75;;;0.50;;
83511;SDS011;73446;0.000;0.000;2024-02-04T10:10:33;1.95;;;0.32;;
83511;SDS011;73446;0.000;0.000;2024-02-04T10:13:17;1.50;;;0.20;;
83511;SDS011;73446;0.000;0.000;2024-02-04T10:16:01;1.63;;;0.70;;
83511;SDS011;73446;0.000;0.000;2024-02-04T10:18:46;2.78;;;0.95;;
83511;SDS011;73446;0.000;0.000;2024-02-04T10:21:33;0.65;;;0.30;;
83511;SDS011;73446;0.000;0.000;2024-02-04T10:24:16;0.40;;;0.40;;
83511;SDS011;73446;0.000;0.000;2024-02-04T10:27:01;0.75;;;0.38;;
83511;SDS011;73446;0.000;0.000;2024-02-04T10:29:45;0.50;;;0.32;;
83511;SDS011;73446;0.000;0.000;2024-02-04T10:32:30;2.53;;;0.32;;
83511;SDS011;73446;0.000;0.000;2024-02-04T10:35:14;2.15;;;0.52;;
83511;SDS011;73446;0.000;0.000;2024-02-04T10:37:59;1.08;;;0.63;;
83511;SDS011;73446;0.000;0.000;2024-02-04T10:40:43;3.47;;;0.43;;
83511;SDS011;73446;0.000;0.000;2024-02-04T10:43:32;0.77;;;0.30;;
83511;SDS011;73446;0.000;0.000;2024-02-04T10:46:22;1.35;;;0.43;;
83511;SDS011;73446;0.000;0.000;2024-02-04T10:49:06;0.82;;;0.38;;
83511;SDS011;73446;0.000;0.000;2024-02-04T10:51:56;1.42;;;0.20;;
83511;SDS011;73446;0.000;0.000;2024-02-04T10:54:44;0.52;;;0.47;;
83511;SDS011;73446;0.000;0.000;2024-02-04T10:57:28;3.40;;;0.63;;
83511;SDS011;73446;0.000;0.000;2024-02-04T11:00:14;5.18;;;0.85;;
83511;SDS011;73446;0.000;0.000;2024-02-04T11:05:46;1.85;;;0.95;;
83511;SDS011;73446;0.000;0.000;2024-02-04T11:08:31;2.70;;;0.80;;
83511;SDS011;73446;0.000;0.000;2024-02-04T11:11:15;3.17;;;0.03;;
83511;SDS011;73446;0.000;0.000;2024-02-04T11:14:00;3.13;;;0.90;;
83511;SDS011;73446;0.000;0.000;2024-02-04T11:16:52;5.13;;;2.08;;
83511;SDS011;73446;0.000;0.000;2024-02-04T11:23:41;6.93;;;2.55;;
83511;SDS011;73446;0.000;0.000;2024-02-04T11:26:29;9.13;;;2.15;;
83511;SDS011;73446;0.000;0.000;2024-02-04T11:29:14;8.40;;;2.45;;
83511;SDS011;73446;0.000;0.000;2024-02-04T11:31:58;8.55;;;1.55;;
83511;SDS011;73446;0.000;0.000;2024-02-04T11:34:43;5.82;;;1.95;;
83511;SDS011;73446;0.000;0.000;2024-02-04T11:37:28;9.13;;;1.52;;
83511;SDS011;73446;0.000;0.000;2024-02-04T11:40:15;8.27;;;1.45;;
83511;SDS011;73446;0.000;0.000;2024-02-04T11:43:04;5.95;;;1.17;;
83511;SDS011;73446;0.000;0.000;2024-02-04T11:45:51;3.42;;;0.30;;
83511;SDS011;73446;0.000;0.000;2024-02-04T11:48:40;3.58;;;1.05;;
83511;SDS011;73446;0.000;0.000;2024-02-04T11:51:24;6.72;;;1.55;;
83511;SDS011;73446;0.000;0.000;2024-02-04T11:54:11;10.15;;;1.27;;
83511;SDS011;73446;0.000;0.000;2024-02-04T11:56:57;3.28;;;0.80;;
83511;SDS011;73446;0.000;0.000;2024-02-04T11:59:42;7.75;;;1.42;;
83511;SDS011;73446;0.000;0.000;2024-02-04T12:02:27;5.60;;;0.80;;
83511;SDS011;73446;0.000;0.000;2024-02-04T12:05:12;6.47;;;1.13;;
83511;SDS011;73446;0.000;0.000;2024-02-04T12:07:57;4.03;;;0.85;;
83511;SDS011;73446;0.000;0.000;2024-02-04T12:10:43;7.25;;;2.10;;
83511;SDS011;73446;0.000;0.000;2024-02-04T12:13:27;6.05;;;1.60;;
83511;SDS011;73446;0.000;0.000;2024-02-04T12:16:11;8.63;;;0.55;;
83511;SDS011;73446;0.000;0.000;2024-02-04T12:18:56;5.15;;;1.17;;
83511;SDS011;73446;0.000;0.000;2024-02-04T12:21:40;5.00;;;1.15;;
83511;SDS011;73446;0.000;0.000;2024-02-04T12:24:24;6.45;;;1.08;;
83511;SDS011;73446;0.000;0.000;2024-02-04T12:27:08;2.63;;;1.33;;
83511;SDS011;73446;0.000;0.000;2024-02-04T12:29:52;4.30;;;0.90;;
83511;SDS011;73446;0.000;0.000;2024-02-04T12:32:36;9.00;;;1.17;;
83511;SDS011;73446;0.000;0.000;2024-02-04T12:35:21;3.50;;;0.70;;
83511;SDS011;73446;0.000;0.000;2024-02-04T12:38:05;5.95;;;0.77;;
83511;SDS011;73446;0.000;0.000;2024-02-04T12:40:51;4.70;;;0.50;;
83511;SDS011;73446;0.000;0.000;2024-02-04T12:43:35;3.60;;;0.60;;
83511;SDS011;73446;0.000;0.000;2024-02-04T12:46:20;5.38;;;0.35;;
83511;SDS011;73446;0.000;0.000;2024-02-04T12:49:08;3.80;;;0.60;;
83511;SDS011;73446;0.000;0.000;2024-02-04T12:51:52;3.40;;;0.95;;
83511;SDS011;73446;0.000;0.000;2024-02-04T12:54:40;1.80;;;0.55;;
83511;SDS011;73446;0.000;0.000;2024-02-04T12:57:27;3.28;;;0.63;;
83511;SDS011;73446;0.000;0.000;2024-02-04T13:00:11;2.33;;;0.82;;
83511;SDS011;73446;0.000;0.000;2024-02-04T13:02:56;1.95;;;0.30;;
83511;SDS011;73446;0.000;0.000;2024-02-04T13:05:40;2.35;;;0.00;;
83511;SDS011;73446;0.000;0.000;2024-02-04T13:08:24;3.33;;;0.30;;
83511;SDS011;73446;0.000;0.000;2024-02-04T13:11:09;1.75;;;0.55;;
83511;SDS011;73446;0.000;0.000;2024-02-04T13:13:53;2.42;;;0.30;;
83511;SDS011;73446;0.000;0.000;2024-02-04T13:16:37;3.25;;;0.57;;
83511;SDS011;73446;0.000;0.000;2024-02-04T13:19:22;2.78;;;0.68;;
83511;SDS011;73446;0.000;0.000;2024-02-04T13:22:06;3.50;;;0.55;;
83511;SDS011;73446;0.000;0.000;2024-02-04T13:24:53;3.50;;;0.73;;
83511;SDS011;73446;0.000;0.000;2024-02-04T13:27:37;3.05;;;0.52;;
83511;SDS011;73446;0.000;0.000;2024-02-04T13:30:21;0.88;;;0.52;;
83511;SDS011;73446;0.000;0.000;2024-02-04T13:33:06;3.78;;;0.63;;
83511;SDS011;73446;0.000;0.000;2024-02-04T13:35:50;3.65;;;0.60;;
83511;SDS011;73446;0.000;0.000;2024-02-04T13:38:34;1.58;;;0.20;;
83511;SDS011;73446;0.000;0.000;2024-02-04T13:41:19;1.70;;;0.47;;
83511;SDS011;73446;0.000;0.000;2024-02-04T13:44:03;0.55;;;0.55;;
83511;SDS011;73446;0.000;0.000;2024-02-04T13:46:48;1.02;;;0.38;;
83511;SDS011;73446;0.000;0.000;2024-02-04T13:49:32;1.70;;;0.63;;
83511;SDS011;73446;0.000;0.000;2024-02-04T13:52:16;3.10;;;0.80;;
83511;SDS011;73446;0.000;0.000;2024-02-04T13:55:00;1.60;;;0.45;;
83511;SDS011;73446;0.000;0.000;2024-02-04T13:57:44;2.10;;;0.40;;
83511;SDS011;73446;0.000;0.000;2024-02-04T14:00:28;0.70;;;0.70;;
83511;SDS011;73446;0.000;0.000;2024-02-04T14:03:12;1.73;;;0.52;;
83511;SDS011;73446;0.000;0.000;2024-02-04T14:05:56;0.52;;;0.43;;
83511;SDS011;73446;0.000;0.000;2024-02-04T14:08:41;2.80;;;0.55;;
83511;SDS011;73446;0.000;0.000;2024-02-04T14:11:25;2.78;;;0.70;;
83511;SDS011;73446;0.000;0.000;2024-02-04T14:14:09;0.95;;;0.90;;
83511;SDS011;73446;0.000;0.000;2024-02-04T14:16:53;3.13;;;0.45;;
83511;SDS011;73446;0.000;0.000;2024-02-04T14:19:37;27.55;;;10.88;;
83511;SDS011;73446;0.000;0.000;2024-02-04T14:22:21;52.75;;;28.73;;
83511;SDS011;73446;0.000;0.000;2024-02-04T14:25:06;56.58;;;32.25;;
83511;SDS011;73446;0.000;0.000;2024-02-04T14:27:50;66.32;;;31.60;;
83511;SDS011;73446;0.000;0.000;2024-02-04T14:30:34;54.85;;;33.15;;
83511;SDS011;73446;0.000;0.000;2024-02-04T14:33:18;49.53;;;32.28;;
83511;SDS011;73446;0.000;0.000;2024-02-04T14:36:03;47.75;;;32.15;;
83511;SDS011;73446;0.000;0.000;2024-02-04T14:38:47;53.63;;;33.67;;
83511;SDS011;73446;0.000;0.000;2024-02-04T14:41:34;46.13;;;35.75;;
83511;SDS011;73446;0.000;0.000;2024-02-04T14:44:19;52.30;;;28.27;;
83511;SDS011;73446;0.000;0.000;2024-02-04T14:47:04;49.60;;;27.48;;
83511;SDS011;73446;0.000;0.000;2024-02-04T14:49:48;39.90;;;24.63;;
83511;SDS011;73446;0.000;0.000;2024-02-04T14:52:32;38.13;;;25.98;;
83511;SDS011;73446;0.000;0.000;2024-02-04T14:55:16;36.13;;;23.40;;
83511;SDS011;73446;0.000;0.000;2024-02-04T14:58:00;34.03;;;21.15;;
83511;SDS011;73446;0.000;0.000;2024-02-04T15:00:44;34.35;;;22.80;;
83511;SDS011;73446;0.000;0.000;2024-02-04T15:03:28;31.83;;;22.05;;
83511;SDS011;73446;0.000;0.000;2024-02-04T15:06:12;31.55;;;19.88;;
83511;SDS011;73446;0.000;0.000;2024-02-04T15:08:57;29.38;;;18.80;;
83511;SDS011;73446;0.000;0.000;2024-02-04T15:11:42;29.15;;;18.92;;
83511;SDS011;73446;0.000;0.000;2024-02-04T15:14:27;25.67;;;16.55;;
83511;SDS011;73446;0.000;0.000;2024-02-04T15:17:11;28.58;;;15.80;;
83511;SDS011;73446;0.000;0.000;2024-02-04T15:19:58;23.00;;;15.85;;
83511;SDS011;73446;0.000;0.000;2024-02-04T15:22:43;24.15;;;14.57;;
83511;SDS011;73446;0.000;0.000;2024-02-04T15:25:27;22.70;;;16.33;;
83511;SDS011;73446;0.000;0.000;2024-02-04T15:28:11;18.02;;;12.95;;
83511;SDS011;73446;0.000;0.000;2024-02-04T15:30:59;18.45;;;12.43;;
83511;SDS011;73446;0.000;0.000;2024-02-04T15:33:43;22.55;;;11.60;;
83511;SDS011;73446;0.000;0.000;2024-02-04T15:36:27;14.93;;;10.48;;
83511;SDS011;73446;0.000;0.000;2024-02-04T15:39:11;18.00;;;11.05;;
83511;SDS011;73446;0.000;0.000;2024-02-04T15:41:55;16.58;;;9.98;;
83511;SDS011;73446;0.000;0.000;2024-02-04T15:44:40;15.73;;;9.98;;
83511;SDS011;73446;0.000;0.000;2024-02-04T15:47:24;14.02;;;9.23;;
83511;SDS011;73446;0.000;0.000;2024-02-04T15:50:11;13.93;;;8.70;;
83511;SDS011;73446;0.000;0.000;2024-02-04T15:52:55;12.40;;;7.82;;
83511;SDS011;73446;0.000;0.000;2024-02-04T15:55:39;11.18;;;6.72;;
83511;SDS011;73446;0.000;0.000;2024-02-04T15:58:24;11.75;;;7.70;;
83511;SDS011;73446;0.000;0.000;2024-02-04T16:01:13;12.45;;;6.25;;
83511;SDS011;73446;0.000;0.000;2024-02-04T16:04:01;9.70;;;5.93;;
83511;SDS011;73446;0.000;0.000;2024-02-04T16:06:46;9.82;;;6.97;;
83511;SDS011;73446;0.000;0.000;2024-02-04T16:09:30;7.63;;;4.00;;
83511;SDS011;73446;0.000;0.000;2024-02-04T16:12:17;7.45;;;5.35;;
83511;SDS011;73446;0.000;0.000;2024-02-04T16:15:03;7.93;;;4.80;;
83511;SDS011;73446;0.000;0.000;2024-02-04T16:17:53;6.95;;;3.38;;
83511;SDS011;73446;0.000;0.000;2024-02-04T16:20:38;6.93;;;3.70;;
83511;SDS011;73446;0.000;0.000;2024-02-04T16:23:23;5.95;;;3.65;;
83511;SDS011;73446;0.000;0.000;2024-02-04T16:26:08;5.63;;;2.95;;
83511;SDS011;73446;0.000;0.000;2024-02-04T16:28:53;5.28;;;3.50;;
83511;SDS011;73446;0.000;0.000;2024-02-04T16:31:37;5.95;;;3.35;;
83511;SDS011;73446;0.000;0.000;2024-02-04T16:34:20;4.38;;;2.40;;
83511;SDS011;73446;0.000;0.000;2024-02-04T16:37:04;6.95;;;3.20;;
83511;SDS011;73446;0.000;0.000;2024-02-04T16:39:53;6.03;;;3.67;;
83511;SDS011;73446;0.000;0.000;2024-02-04T16:42:37;4.97;;;2.47;;
83511;SDS011;73446;0.000;0.000;2024-02-04T16:45:22;4.20;;;2.70;;
83511;SDS011;73446;0.000;0.000;2024-02-04T16:48:07;5.80;;;3.22;;
83511;SDS011;73446;0.000;0.000;2024-02-04T16:50:51;4.82;;;1.27;;
83511;SDS011;73446;0.000;0.000;2024-02-04T16:53:35;5.18;;;2.13;;
83511;SDS011;73446;0.000;0.000;2024-02-04T16:56:20;4.05;;;2.38;;